createdAt,value
2022-11-24T00:02:00.673Z,0.70
2022-11-24T00:07:04.343Z,0.60
2022-11-24T00:12:08.081Z,0.50
2022-11-24T00:17:13.165Z,0.67
2022-11-24T00:22:16.824Z,0.63
2022-11-24T00:27:20.446Z,0.70
2022-11-24T00:32:25.534Z,0.63
2022-11-24T00:37:29.181Z,0.50
2022-11-24T00:42:32.857Z,0.50
2022-11-24T00:47:37.945Z,0.60
2022-11-24T00:52:41.584Z,0.43
2022-11-24T00:57:45.237Z,0.50
2022-11-24T01:02:50.240Z,0.50
2022-11-24T01:07:54.017Z,0.50
2022-11-24T01:12:57.812Z,0.50
2022-11-24T01:18:02.944Z,0.40
2022-11-24T01:23:07.368Z,0.50
2022-11-24T01:28:11.033Z,0.50
2022-11-24T01:33:16.027Z,0.40
2022-11-24T01:38:19.811Z,0.47
2022-11-24T01:43:23.586Z,0.63
2022-11-24T01:48:31.713Z,0.60
2022-11-24T01:53:36.276Z,0.40
2022-11-24T01:58:45.186Z,0.63
2022-11-24T02:03:51.334Z,1.00
2022-11-24T02:09:01.104Z,0.80
2022-11-24T02:14:06.279Z,0.87
2022-11-24T02:19:23.955Z,0.63
2022-11-24T02:24:34.499Z,1.10
2022-11-24T02:29:41.009Z,0.73
2022-11-24T02:34:44.684Z,0.43
2022-11-24T02:39:48.336Z,0.87
2022-11-24T02:44:59.016Z,0.80
2022-11-24T02:50:03.042Z,0.97
2022-11-24T02:55:08.140Z,0.70
2022-11-24T03:00:14.400Z,0.93
2022-11-24T03:05:18.171Z,0.80
2022-11-24T03:10:22.093Z,0.93
2022-11-24T03:15:27.151Z,0.37
2022-11-24T03:20:31.175Z,0.80
2022-11-24T03:25:34.932Z,0.70
2022-11-24T03:30:40.394Z,0.70
2022-11-24T03:35:44.229Z,0.47
2022-11-24T03:40:47.907Z,0.53
2022-11-24T03:45:53.213Z,0.93
2022-11-24T03:50:58.330Z,0.60
2022-11-24T03:56:02.472Z,0.70
2022-11-24T04:01:07.776Z,1.03
2022-11-24T04:06:11.797Z,0.97
2022-11-24T04:11:35.443Z,0.87
2022-11-24T04:16:40.368Z,1.07
2022-11-24T04:21:44.727Z,0.83
2022-11-24T04:26:48.255Z,0.70
2022-11-24T04:31:53.164Z,0.80
2022-11-24T04:36:56.681Z,0.90
2022-11-24T04:42:00.297Z,0.73
2022-11-24T04:47:05.986Z,0.97
2022-11-24T04:52:09.781Z,1.20
2022-11-24T04:57:17.871Z,1.13
2022-11-24T05:02:23.198Z,1.00
2022-11-24T05:07:26.800Z,0.60
2022-11-24T05:12:31.323Z,1.10
2022-11-24T05:17:39.312Z,0.73
2022-11-24T05:22:42.810Z,0.80
2022-11-24T05:27:46.349Z,0.70
2022-11-24T05:32:51.240Z,0.60
2022-11-24T05:37:55.174Z,1.00
2022-11-24T05:43:00.505Z,0.90
2022-11-24T05:48:07.916Z,0.47
2022-11-24T05:53:13.011Z,0.97
2022-11-24T05:58:16.707Z,0.70
2022-11-24T06:03:21.641Z,0.70
2022-11-24T06:08:29.646Z,0.80
2022-11-24T06:13:34.711Z,0.60
2022-11-24T06:18:40.224Z,1.13
2022-11-24T06:23:43.785Z,1.10
2022-11-24T06:28:47.643Z,1.27
2022-11-24T06:33:52.552Z,0.63
2022-11-24T06:38:56.137Z,0.77
2022-11-24T06:43:59.764Z,0.90
2022-11-24T06:49:04.748Z,0.70
2022-11-24T06:54:09.169Z,0.50
2022-11-24T06:59:18.493Z,0.50
2022-11-24T07:04:23.533Z,0.70
2022-11-24T07:09:27.050Z,0.60
2022-11-24T07:14:30.552Z,0.90
2022-11-24T07:19:35.462Z,0.80
2022-11-24T07:24:38.960Z,0.90
2022-11-24T07:29:42.573Z,0.93
2022-11-24T07:34:47.463Z,0.60
2022-11-24T07:39:51.018Z,0.53
2022-11-24T07:44:54.539Z,0.50
2022-11-24T07:49:59.451Z,0.70
2022-11-24T07:55:03.072Z,0.50
2022-11-24T08:00:09.294Z,0.70
2022-11-24T08:05:14.305Z,0.80
2022-11-24T08:10:18.463Z,0.60
2022-11-24T08:15:22.171Z,0.50
2022-11-24T08:20:27.112Z,0.33
2022-11-24T08:25:32.330Z,0.33
2022-11-24T08:30:35.858Z,0.40
2022-11-24T08:35:40.758Z,0.40
2022-11-24T08:40:44.294Z,0.40
2022-11-24T08:45:47.870Z,0.60
2022-11-24T08:50:52.796Z,0.30
2022-11-24T08:56:00.619Z,0.50
2022-11-24T09:01:06.518Z,0.90
2022-11-24T09:06:11.980Z,0.60
2022-11-24T09:11:17.474Z,0.60
2022-11-24T09:16:22.781Z,0.50
2022-11-24T09:21:27.757Z,0.60
2022-11-24T09:26:33.106Z,0.40
2022-11-24T09:31:39.157Z,0.40
2022-11-24T09:36:44.146Z,0.63
2022-11-24T09:42:03.266Z,0.70
2022-11-24T09:47:14.898Z,0.70
2022-11-24T09:52:24.055Z,0.60
2022-11-24T09:57:35.859Z,1.03
2022-11-24T10:02:41.068Z,1.30
2022-11-24T10:07:55.398Z,1.00
2022-11-24T10:13:07.034Z,1.20
2022-11-24T10:18:34.740Z,1.10
2022-11-24T10:24:00.888Z,0.50
2022-11-24T10:29:21.181Z,0.73
2022-11-24T10:34:29.613Z,0.77
2022-11-24T10:39:40.281Z,0.83
2022-11-24T10:44:44.630Z,0.60
2022-11-24T10:49:56.596Z,0.73
2022-11-24T10:55:03.416Z,0.80
2022-11-24T11:00:32.824Z,0.73
2022-11-24T11:05:42.213Z,0.60
2022-11-24T11:10:49.058Z,1.13
2022-11-24T11:15:52.915Z,0.70
2022-11-24T11:20:58.436Z,0.53
2022-11-24T11:26:33.236Z,0.80
2022-11-24T11:31:37.504Z,0.80
2022-11-24T11:36:44.964Z,0.90
2022-11-24T11:41:52.923Z,0.87
2022-11-24T11:46:59.697Z,0.83
2022-11-24T11:52:38.595Z,1.17
2022-11-24T11:57:51.535Z,0.70
2022-11-24T12:03:15.726Z,0.87
2022-11-24T12:08:49.619Z,1.03
2022-11-24T12:14:15.504Z,0.80
2022-11-24T12:19:46.293Z,0.80
2022-11-24T12:24:56.870Z,0.70
2022-11-24T12:30:12.122Z,0.60
2022-11-24T12:35:25.133Z,1.13
2022-11-24T12:40:46.966Z,0.70
2022-11-24T12:46:00.180Z,0.80
2022-11-24T12:51:06.906Z,0.67
2022-11-24T12:56:15.633Z,0.50
2022-11-24T13:01:31.879Z,0.77
2022-11-24T13:06:49.386Z,0.63
2022-11-24T13:11:56.737Z,0.60
2022-11-24T13:17:31.852Z,0.50
2022-11-24T13:22:37.403Z,0.90
2022-11-24T13:27:46.640Z,0.77
2022-11-24T13:33:03.325Z,0.60
2022-11-24T13:38:42.476Z,0.60
2022-11-24T13:44:24.549Z,0.60
2022-11-24T13:49:40.740Z,0.77
2022-11-24T13:54:44.485Z,0.67
2022-11-24T13:59:48.457Z,0.70
2022-11-24T14:04:53.440Z,0.80
2022-11-24T14:09:57.085Z,0.43
2022-11-24T14:15:22.720Z,0.60
2022-11-24T14:20:29.235Z,0.40
2022-11-24T14:25:35.156Z,0.50
2022-11-24T14:30:38.759Z,0.70
2022-11-24T14:35:46.920Z,0.80
2022-11-24T14:40:52.847Z,0.87
2022-11-24T14:45:59.253Z,0.73
2022-11-24T14:51:13.925Z,0.60
2022-11-24T14:56:26.615Z,0.70
2022-11-24T15:01:33.773Z,0.67
2022-11-24T15:06:40.599Z,0.70
2022-11-24T15:11:44.387Z,0.43
2022-11-24T15:16:48.504Z,0.60
2022-11-24T15:21:53.500Z,0.50
2022-11-24T15:27:01.440Z,0.67
2022-11-24T15:32:13.615Z,0.50
2022-11-24T15:37:18.626Z,0.63
2022-11-24T15:42:22.202Z,0.50
2022-11-24T15:47:25.741Z,0.53
2022-11-24T15:52:31.443Z,0.47
2022-11-24T15:57:35.664Z,0.43
2022-11-24T16:02:39.368Z,0.70
2022-11-24T16:07:44.867Z,1.30
2022-11-24T16:12:48.445Z,2.33
2022-11-24T16:17:52.696Z,2.40
2022-11-24T16:22:57.807Z,1.57
2022-11-24T16:28:01.450Z,1.97
2022-11-24T16:33:05.659Z,1.57
2022-11-24T16:38:17.210Z,6.93
2022-11-24T16:43:21.178Z,4.47
2022-11-24T16:48:24.717Z,4.40
2022-11-24T16:53:29.584Z,2.97
2022-11-24T16:58:33.259Z,2.40
2022-11-24T17:03:37.448Z,1.63
2022-11-24T17:08:42.965Z,1.70
2022-11-24T17:13:47.402Z,1.60
2022-11-24T17:18:52.585Z,1.70
2022-11-24T17:23:58.699Z,1.40
2022-11-24T17:29:02.330Z,1.67
2022-11-24T17:34:07.485Z,2.13
2022-11-24T17:39:12.692Z,1.93
2022-11-24T17:44:16.219Z,2.50
2022-11-24T17:49:21.093Z,2.20
2022-11-24T17:59:51.037Z,1.77
2022-11-24T18:04:54.575Z,1.10
2022-11-24T18:09:59.458Z,1.10
2022-11-24T18:15:03.170Z,1.40
2022-11-24T18:20:08.757Z,2.60
2022-11-24T18:25:13.649Z,1.87
2022-11-24T18:30:17.757Z,2.93
2022-11-24T18:35:21.310Z,1.90
2022-11-24T18:40:26.509Z,2.10
2022-11-24T18:45:30.539Z,1.80
2022-11-24T18:50:34.424Z,2.13
2022-11-24T18:55:39.270Z,1.37
2022-11-24T19:00:42.883Z,1.57
2022-11-24T19:05:46.428Z,1.20
2022-11-24T19:10:51.780Z,1.20
2022-11-24T19:15:55.243Z,1.00
2022-11-24T19:20:58.793Z,1.00
2022-11-24T19:26:04.416Z,1.00
2022-11-24T19:31:11.184Z,1.07
2022-11-24T19:36:16.333Z,1.00
2022-11-24T19:41:23.782Z,1.10
2022-11-24T19:46:29.719Z,1.40
2022-11-24T19:51:35.289Z,1.40
2022-11-24T19:56:42.744Z,1.30
2022-11-24T20:01:46.430Z,0.90
2022-11-24T20:06:51.440Z,1.47
2022-11-24T20:11:56.560Z,1.40
2022-11-24T20:17:00.473Z,1.43
2022-11-24T20:22:04.039Z,1.60
2022-11-24T20:27:08.997Z,1.23
2022-11-24T20:32:17.408Z,1.40
2022-11-24T20:37:20.985Z,1.73
2022-11-24T20:42:26.892Z,1.60
2022-11-24T20:47:30.817Z,1.33
2022-11-24T20:52:34.368Z,2.20
2022-11-24T20:57:39.272Z,1.50
2022-11-24T21:02:42.842Z,1.50
2022-11-24T21:07:46.424Z,1.70
2022-11-24T21:12:51.324Z,1.10
2022-11-24T21:17:54.872Z,1.40
2022-11-24T21:22:58.624Z,1.53
2022-11-24T21:28:03.624Z,1.10
2022-11-24T21:33:08.173Z,1.63
2022-11-24T21:38:11.865Z,2.07
2022-11-24T21:43:16.840Z,1.47
2022-11-24T21:48:20.533Z,1.30
2022-11-24T21:53:24.183Z,1.53
2022-11-24T21:58:30.304Z,1.60
2022-11-24T22:03:33.894Z,1.47
2022-11-24T22:08:37.679Z,1.70
2022-11-24T22:13:42.919Z,1.40
2022-11-24T22:18:47.341Z,1.47
2022-11-24T22:23:52.639Z,1.10
2022-11-24T22:28:58.897Z,1.27
2022-11-24T22:34:02.528Z,1.87
2022-11-24T22:39:08.302Z,1.77
2022-11-24T22:44:13.418Z,1.70
2022-11-24T22:49:17.001Z,1.50
2022-11-24T22:54:20.834Z,1.70
2022-11-24T22:59:25.778Z,1.90
2022-11-24T23:04:29.471Z,1.90
2022-11-24T23:09:34.200Z,1.60
2022-11-24T23:14:39.123Z,1.20
2022-11-24T23:19:42.678Z,1.60
2022-11-24T23:24:46.315Z,1.33
2022-11-24T23:29:51.583Z,1.70
2022-11-24T23:34:55.372Z,1.43
2022-11-24T23:39:59.018Z,1.37
2022-11-24T23:45:05.745Z,1.43
2022-11-24T23:50:10.180Z,2.00
2022-11-24T23:55:13.700Z,1.70
